DXXX/LFW METAR and TAF weather

Enter ICAO airport designator
Station Type Date Time Source
DXXX METAR 2022/12/04 05:00 UTC NOAA

DXXX 040500Z 26002KT 9999 FEW010 25/23 Q1009 NOSIG


Station Type Date Time Source
DXXX Decoded METAR 2022/12/04 05:00 UTC NOAA

Lome, Togo (DXXX) 06-10N 001-15E 25M
Dec 04, 2022 - 12:00 AM EST / 2022.12.04 0500 UTC
Wind: from the W (260 degrees) at 2 MPH (2 KT):0
Visibility: greater than 7 mile(s):0
Sky conditions: mostly clear
Temperature: 77 F (25 C)
Dew Point: 73 F (23 C)
Relative Humidity: 88%
Pressure (altimeter): 29.80 in. Hg (1009 hPa)
ob: DXXX 040500Z 26002KT 9999 FEW010 25/23 Q1009 NOSIG
cycle: 5

Station Type Date Time Source
DXXX TAF 2022/12/04 06:21 UTC NOAA

TAF DXXX 040500Z 0406/0512 26005KT 9999 FEW013
BECMG 0408/0410 20010KT PROB30
TEMPO 0413/0418 TS BKN010 FEW020CB
BECMG 0422/0424 26005KT

Example: see airport list